Terminal Aerodrome Forecast
Issued by NWS

Home | Current Version | Previous Version | Text Only | Print | Product List | Glossary On
Versions: 1 2 3 4 5 6 7 8 9 10 11 12 13 14 15 16 17 18 19 20 21 22 23
944
FTUS46 KPDT 170859 AAB
TAFPSC
TAF AMD
KPSC 170859Z 1709/1806 29003KT 6SM BR SCT002 BKN200
      TEMPO 1709/1712 3/4SM BR BKN002
     FM171200 VRB04KT 1SM BR SCT002 OVC150
     FM171500 VRB04KT P6SM OVC100
     FM172100 36003KT P6SM OVC120=

USA.gov is the U.S. government's official web portal to all federal, state and local government web resources and services.